sensor_id;sensor_type;location;lat;lon;timestamp;pressure;altitude;pressure_sealevel;temperature;humidity
85683;BME280;76113;52.232;5.176;2024-01-30T19:42:45;103176.91;;;23.52;37.34
85683;BME280;76113;52.232;5.176;2024-01-30T19:45:11;103181.75;;;22.97;38.15
85683;BME280;76113;52.232;5.176;2024-01-30T19:47:37;103180.13;;;22.78;38.59
85683;BME280;76113;52.232;5.176;2024-01-30T19:50:02;103173.09;;;22.67;38.39
85683;BME280;76113;52.232;5.176;2024-01-30T19:52:28;103178.56;;;22.58;38.75
85683;BME280;76113;52.232;5.176;2024-01-30T19:54:53;103183.69;;;22.51;38.74
85683;BME280;76113;52.232;5.176;2024-01-30T19:57:19;103186.19;;;22.45;39.15
85683;BME280;76113;52.232;5.176;2024-01-30T19:59:44;103187.25;;;22.34;38.93
85683;BME280;76113;52.232;5.176;2024-01-30T20:02:09;103184.69;;;22.32;39.34
85683;BME280;76113;52.232;5.176;2024-01-30T20:04:36;103195.75;;;22.29;39.12
85683;BME280;76113;52.232;5.176;2024-01-30T20:07:02;103203.41;;;22.24;39.35
85683;BME280;76113;52.232;5.176;2024-01-30T20:09:27;103201.00;;;22.04;39.58
85683;BME280;76113;52.232;5.176;2024-01-30T20:11:53;103215.09;;;22.06;39.33
85683;BME280;76113;52.232;5.176;2024-01-30T20:14:19;103210.59;;;22.06;39.15
85683;BME280;76113;52.232;5.176;2024-01-30T20:16:45;103221.31;;;22.06;39.08
85683;BME280;76113;52.232;5.176;2024-01-30T20:19:12;103222.75;;;22.01;39.26
85683;BME280;76113;52.232;5.176;2024-01-30T20:21:38;103219.41;;;21.99;39.47
85683;BME280;76113;52.232;5.176;2024-01-30T20:24:04;103224.38;;;21.93;39.73
85683;BME280;76113;52.232;5.176;2024-01-30T20:26:30;103227.31;;;21.90;39.59
85683;BME280;76113;52.232;5.176;2024-01-30T20:28:55;103227.31;;;21.90;39.57
85683;BME280;76113;52.232;5.176;2024-01-30T20:31:21;103228.59;;;21.86;39.83
85683;BME280;76113;52.232;5.176;2024-01-30T20:33:48;103237.25;;;21.80;39.86
85683;BME280;76113;52.232;5.176;2024-01-30T20:36:15;103238.25;;;21.79;39.73
85683;BME280;76113;52.232;5.176;2024-01-30T20:38:40;103240.53;;;21.74;40.01
85683;BME280;76113;52.232;5.176;2024-01-30T20:41:06;103251.53;;;21.71;39.89
85683;BME280;76113;52.232;5.176;2024-01-30T20:43:35;103248.44;;;21.66;40.16
85683;BME280;76113;52.232;5.176;2024-01-30T20:46:00;103249.28;;;21.67;39.69
85683;BME280;76113;52.232;5.176;2024-01-30T20:48:25;103252.28;;;21.64;39.93
85683;BME280;76113;52.232;5.176;2024-01-30T20:50:51;103268.69;;;21.61;40.12
85683;BME280;76113;52.232;5.176;2024-01-30T20:53:17;103270.66;;;21.59;40.29
85683;BME280;76113;52.232;5.176;2024-01-30T20:55:42;103269.25;;;21.54;40.15
85683;BME280;76113;52.232;5.176;2024-01-30T20:58:07;103271.38;;;21.51;40.15
85683;BME280;76113;52.232;5.176;2024-01-30T21:00:33;103281.25;;;21.50;39.95
85683;BME280;76113;52.232;5.176;2024-01-30T21:02:58;103280.69;;;21.47;40.15
85683;BME280;76113;52.232;5.176;2024-01-30T21:05:23;103283.66;;;21.44;40.09
85683;BME280;76113;52.232;5.176;2024-01-30T21:07:49;103284.78;;;21.41;40.12
85683;BME280;76113;52.232;5.176;2024-01-30T21:10:15;103277.19;;;21.37;40.20
85683;BME280;76113;52.232;5.176;2024-01-30T21:12:42;103280.03;;;21.35;40.46
85683;BME280;76113;52.232;5.176;2024-01-30T21:15:08;103271.56;;;21.30;40.46
85683;BME280;76113;52.232;5.176;2024-01-30T21:17:34;103280.59;;;21.29;40.41
85683;BME280;76113;52.232;5.176;2024-01-30T21:20:00;103280.03;;;21.26;40.53
85683;BME280;76113;52.232;5.176;2024-01-30T21:22:25;103284.69;;;21.24;40.52
85683;BME280;76113;52.232;5.176;2024-01-30T21:24:51;103279.88;;;21.18;40.47
85683;BME280;76113;52.232;5.176;2024-01-30T21:27:16;103293.28;;;21.18;40.74
85683;BME280;76113;52.232;5.176;2024-01-30T21:29:42;103296.53;;;21.11;40.50
85683;BME280;76113;52.232;5.176;2024-01-30T21:32:08;103305.56;;;21.10;40.61
85683;BME280;76113;52.232;5.176;2024-01-30T21:34:34;103303.31;;;21.06;40.53
85683;BME280;76113;52.232;5.176;2024-01-30T21:36:59;103316.41;;;20.99;40.64
85683;BME280;76113;52.232;5.176;2024-01-30T21:39:25;103318.09;;;21.00;40.64
85683;BME280;76113;52.232;5.176;2024-01-30T21:41:50;103319.34;;;20.77;40.73
85683;BME280;76113;52.232;5.176;2024-01-30T21:44:15;103324.53;;;20.69;41.02
85683;BME280;76113;52.232;5.176;2024-01-30T21:46:40;103327.38;;;20.77;40.46
85683;BME280;76113;52.232;5.176;2024-01-30T21:49:06;103325.53;;;20.78;40.56
85683;BME280;76113;52.232;5.176;2024-01-30T21:51:31;103335.28;;;20.79;40.83
85683;BME280;76113;52.232;5.176;2024-01-30T21:53:56;103335.69;;;20.74;40.76
85683;BME280;76113;52.232;5.176;2024-01-30T21:56:22;103339.63;;;20.70;40.86
85683;BME280;76113;52.232;5.176;2024-01-30T21:58:47;103337.91;;;20.59;41.07
85683;BME280;76113;52.232;5.176;2024-01-30T22:01:14;103333.41;;;20.60;41.01
85683;BME280;76113;52.232;5.176;2024-01-30T22:03:40;103346.81;;;20.60;41.05
85683;BME280;76113;52.232;5.176;2024-01-30T22:06:06;103342.56;;;20.57;40.95
85683;BME280;76113;52.232;5.176;2024-01-30T22:08:31;103341.88;;;20.55;40.88
85683;BME280;76113;52.232;5.176;2024-01-30T22:10:57;103340.44;;;20.51;41.08
85683;BME280;76113;52.232;5.176;2024-01-30T22:13:22;103339.84;;;20.48;41.15
85683;BME280;76113;52.232;5.176;2024-01-30T22:15:49;103347.19;;;20.46;41.26
85683;BME280;76113;52.232;5.176;2024-01-30T22:18:15;103335.06;;;20.42;41.30
85683;BME280;76113;52.232;5.176;2024-01-30T22:20:41;103345.91;;;20.40;41.24
85683;BME280;76113;52.232;5.176;2024-01-30T22:23:06;103347.28;;;20.35;41.38
85683;BME280;76113;52.232;5.176;2024-01-30T22:25:31;103340.22;;;20.34;41.42
85683;BME280;76113;52.232;5.176;2024-01-30T22:27:57;103347.56;;;20.32;41.82
85683;BME280;76113;52.232;5.176;2024-01-30T22:30:23;103346.13;;;20.27;41.62
85683;BME280;76113;52.232;5.176;2024-01-30T22:32:48;103345.75;;;20.11;41.67
85683;BME280;76113;52.232;5.176;2024-01-30T22:35:14;103343.50;;;20.07;41.84
85683;BME280;76113;52.232;5.176;2024-01-30T22:37:39;103340.41;;;20.11;41.70
85683;BME280;76113;52.232;5.176;2024-01-30T22:40:05;103340.53;;;20.10;41.65
85683;BME280;76113;52.232;5.176;2024-01-30T22:42:31;103347.88;;;20.08;41.62
85683;BME280;76113;52.232;5.176;2024-01-30T22:44:56;103349.81;;;20.06;41.74
85683;BME280;76113;52.232;5.176;2024-01-30T22:47:22;103343.63;;;20.05;41.79
85683;BME280;76113;52.232;5.176;2024-01-30T22:49:47;103357.28;;;20.02;41.79
85683;BME280;76113;52.232;5.176;2024-01-30T22:52:13;103345.50;;;19.94;41.83
85683;BME280;76113;52.232;5.176;2024-01-30T22:54:38;103357.78;;;19.96;41.88
85683;BME280;76113;52.232;5.176;2024-01-30T22:57:04;103362.41;;;19.94;41.90
85683;BME280;76113;52.232;5.176;2024-01-30T22:59:29;103359.16;;;19.91;41.99
85683;BME280;76113;52.232;5.176;2024-01-30T23:01:55;103348.75;;;19.88;42.10
85683;BME280;76113;52.232;5.176;2024-01-30T23:04:20;103356.88;;;19.86;42.21
85683;BME280;76113;52.232;5.176;2024-01-30T23:06:45;103353.66;;;19.82;42.23
85683;BME280;76113;52.232;5.176;2024-01-30T23:09:10;103346.13;;;19.76;42.01
85683;BME280;76113;52.232;5.176;2024-01-30T23:11:39;103361.06;;;19.79;42.26
85683;BME280;76113;52.232;5.176;2024-01-30T23:14:05;103365.94;;;19.74;42.36
85683;BME280;76113;52.232;5.176;2024-01-30T23:16:30;103363.28;;;19.74;42.54
85683;BME280;76113;52.232;5.176;2024-01-30T23:18:56;103358.94;;;19.52;42.40
85683;BME280;76113;52.232;5.176;2024-01-30T23:21:22;103378.81;;;19.59;42.55
85683;BME280;76113;52.232;5.176;2024-01-30T23:23:47;103383.06;;;19.62;42.53
85683;BME280;76113;52.232;5.176;2024-01-30T23:26:12;103377.84;;;19.60;42.43
85683;BME280;76113;52.232;5.176;2024-01-30T23:28:38;103376.41;;;19.56;42.45
85683;BME280;76113;52.232;5.176;2024-01-30T23:31:03;103378.63;;;19.51;42.78
85683;BME280;76113;52.232;5.176;2024-01-30T23:33:28;103376.91;;;19.50;42.60
85683;BME280;76113;52.232;5.176;2024-01-30T23:35:54;103385.19;;;19.47;42.69
85683;BME280;76113;52.232;5.176;2024-01-30T23:38:19;103385.31;;;19.46;42.81
85683;BME280;76113;52.232;5.176;2024-01-30T23:40:44;103378.38;;;19.43;42.69
85683;BME280;76113;52.232;5.176;2024-01-30T23:43:10;103375.94;;;19.40;42.85
85683;BME280;76113;52.232;5.176;2024-01-30T23:45:35;103376.09;;;19.38;42.63
85683;BME280;76113;52.232;5.176;2024-01-30T23:48:01;103385.94;;;19.38;42.76
85683;BME280;76113;52.232;5.176;2024-01-30T23:50:26;103386.19;;;19.35;42.78
85683;BME280;76113;52.232;5.176;2024-01-30T23:52:52;103388.16;;;19.33;42.84
85683;BME280;76113;52.232;5.176;2024-01-30T23:55:19;103380.38;;;19.30;42.76
85683;BME280;76113;52.232;5.176;2024-01-30T23:57:45;103399.22;;;19.28;42.96
